createdAt,value
2023-03-28T06:07:15.732Z,10.33
2023-03-28T06:11:25.062Z,14.27
2023-03-28T06:47:43.906Z,10.40
2023-03-28T07:29:56.302Z,12.10
2023-03-28T07:34:05.860Z,10.07
2023-03-28T07:57:09.741Z,7.77
2023-03-28T08:02:10.409Z,12.47
2023-03-28T08:06:32.187Z,9.53
2023-03-28T09:04:01.133Z,11.00
2023-03-28T09:19:13.789Z,13.47
2023-03-28T09:24:16.907Z,10.40
2023-03-28T09:28:44.175Z,10.67
2023-03-28T09:33:08.868Z,11.47
2023-03-28T09:37:59.049Z,12.97
2023-03-28T09:51:57.417Z,12.70
2023-03-28T09:56:12.379Z,10.93
2023-03-28T10:00:30.171Z,17.13
2023-03-28T10:04:47.106Z,14.17
2023-03-28T11:06:09.458Z,18.90
2023-03-28T11:10:35.155Z,10.00
2023-03-28T11:29:46.326Z,13.43
2023-03-28T11:34:31.053Z,12.73
2023-03-28T11:39:18.829Z,13.40
2023-03-28T11:43:44.728Z,11.90
2023-03-28T11:48:23.545Z,11.90
2023-03-28T11:57:20.431Z,13.73
2023-03-28T12:01:42.686Z,15.00
2023-03-28T12:06:04.601Z,12.70
2023-03-28T12:15:18.204Z,13.57
2023-03-28T12:19:42.497Z,14.47
2023-03-28T12:28:40.517Z,15.47
2023-03-28T12:33:00.008Z,13.27
2023-03-28T12:37:15.736Z,16.00
2023-03-28T12:41:30.543Z,22.17
2023-03-28T12:45:44.762Z,15.63
2023-03-28T12:50:11.624Z,14.90
2023-03-28T12:54:29.180Z,15.27
2023-03-28T12:58:41.568Z,15.57
2023-03-28T13:02:59.124Z,14.30
2023-03-28T13:07:19.663Z,14.93
2023-03-28T13:11:41.031Z,15.90
2023-03-28T13:20:30.523Z,17.77
2023-03-28T13:24:55.060Z,16.40
2023-03-28T13:29:16.730Z,16.03
2023-03-28T13:33:29.977Z,17.67
2023-03-28T13:37:49.489Z,18.47
2023-03-28T13:42:02.197Z,14.93
2023-03-28T13:46:25.839Z,19.10
2023-03-28T13:50:39.534Z,15.60
2023-03-28T13:54:54.537Z,15.17
2023-03-28T13:59:09.574Z,18.93
2023-03-28T14:03:19.059Z,16.90
2023-03-28T14:07:30.212Z,18.07
2023-03-28T14:11:40.368Z,23.77
2023-03-28T14:15:55.700Z,18.43
2023-03-28T14:20:07.656Z,15.03
2023-03-28T14:24:21.848Z,17.97
2023-03-28T14:28:33.921Z,11.43
2023-03-28T14:32:57.581Z,20.27
2023-03-28T14:37:19.264Z,21.90
2023-03-28T14:41:31.993Z,17.57
2023-03-28T14:45:44.150Z,21.53
2023-03-28T14:49:55.586Z,18.80
2023-03-28T14:54:05.870Z,18.17
2023-03-28T14:58:15.593Z,20.53
2023-03-28T15:02:30.006Z,21.17
2023-03-28T15:06:40.880Z,18.83
2023-03-28T15:10:54.404Z,19.67
2023-03-28T15:15:05.993Z,22.10
2023-03-28T15:19:24.158Z,24.90
2023-03-28T15:23:42.959Z,21.40
2023-03-28T15:28:06.661Z,16.53
2023-03-28T15:32:20.876Z,23.37
2023-03-28T15:36:35.042Z,22.40
2023-03-28T15:40:47.816Z,23.53
2023-03-28T15:45:25.757Z,25.33
2023-03-28T15:49:40.186Z,25.23
2023-03-28T15:53:50.585Z,27.00
2023-03-28T15:58:02.111Z,21.63
2023-03-28T16:02:35.938Z,20.63
2023-03-28T16:06:47.505Z,26.10
2023-03-28T16:10:57.154Z,23.23
2023-03-28T16:15:10.149Z,20.10
2023-03-28T16:19:24.317Z,26.80
2023-03-28T16:23:34.408Z,25.37
2023-03-28T16:27:45.118Z,29.17
2023-03-28T16:31:56.494Z,23.10
2023-03-28T16:36:10.688Z,21.60
2023-03-28T16:40:20.865Z,29.03
2023-03-28T16:44:32.519Z,26.60
2023-03-28T16:48:46.010Z,26.07
2023-03-28T16:52:57.679Z,31.37
2023-03-28T17:01:37.150Z,24.97
2023-03-28T17:05:49.194Z,29.33
2023-03-28T17:15:41.187Z,23.87
2023-03-28T17:20:02.519Z,25.13
2023-03-28T17:34:29.908Z,22.43
2023-03-28T17:38:45.058Z,36.43
2023-03-28T17:43:05.227Z,33.10
2023-03-28T17:47:18.413Z,25.37
2023-03-28T17:51:29.330Z,25.40
2023-03-28T17:55:39.732Z,27.20
2023-03-28T17:59:56.275Z,28.67
2023-03-28T18:04:17.300Z,28.93
2023-03-28T18:08:35.130Z,28.20
2023-03-28T18:12:46.518Z,28.20
2023-03-28T18:22:23.876Z,25.53
2023-03-28T18:26:33.416Z,27.70
2023-03-28T18:31:04.704Z,26.47
2023-03-28T18:35:14.719Z,28.13
2023-03-28T18:39:26.307Z,23.73
2023-03-28T18:43:37.480Z,25.60
2023-03-28T18:47:47.103Z,19.07
2023-03-28T18:52:29.035Z,29.60
2023-03-28T18:56:43.792Z,21.60
2023-03-28T19:01:08.405Z,26.97
2023-03-28T19:05:34.425Z,24.77
2023-03-28T19:56:52.604Z,30.87
2023-03-28T20:05:53.120Z,24.63
2023-03-28T20:19:49.956Z,21.70
2023-03-28T20:24:02.195Z,15.07
2023-03-28T22:18:45.932Z,28.67
